Главная страница
METAR-TAF:

METAR-TAF

Аэропорты :

Cerklje ob Krki, Словения

широта: 45-53-59N, долгота: 15-30-55E, высота над уровнем моря: 157 м

Текущие метеонаблюдения

Эта сводка был подготовлена 20 минут назад, в 23:00 UTC
Ветер 2 Узел от юго-юго-восточный
Температура -2°C
Влажность 93%
Давление 1019 hPa
Видимость: 9000 м
дымка

METAR: LJCE 162300Z AUTO 16002KT 9000 BR NSC M02/M03 Q1019

Время: 00:20 (23:20 UTC)

Прогноз

Эта сводка был подготовлена 3 часа и 20 минут назад, в 20:00 UTC
Прогноз действительный с 16-го 21 UTC до 17-го 06 UTC
Ветер 2 Узел переменных направлений
Видимость: 7000 м

TAF: LJCE 162000Z 1621/1706 VRB02KT 7000 NSC

Метеонаблюдения и прогнозы для более 4000 аэропортов (сводки METAR и TAF).

Имеющиеся станции представлены на карте желтыми и красными точками.

Чтобы увидеть название станции, наведите на нее мышь.

Затем щелкните, чтобы увидеть метеонаблюдения и метеопрогнозы.

Управление картой: чтобы увеличить масштаб, щелкните зеленые кнопки с черным крестиком; чтобы уменьшить масштаб, щелкните зеленую кнопку с тире; для просмотра соседних карт щелкайте зеленые стрелки.


METAR-TAF: